sensor_id;sensor_type;location;lat;lon;timestamp;P1;durP1;ratioP1;P2;durP2;ratioP2
24799;SDS011;12897;50.812;4.430;2023-04-06T00:01:18;31.45;;;15.20;;
24799;SDS011;12897;50.812;4.430;2023-04-06T00:03:45;32.70;;;14.28;;
24799;SDS011;12897;50.812;4.430;2023-04-06T00:06:13;29.70;;;14.25;;
24799;SDS011;12897;50.812;4.430;2023-04-06T00:08:41;29.18;;;15.23;;
24799;SDS011;12897;50.812;4.430;2023-04-06T00:11:09;29.85;;;14.43;;
24799;SDS011;12897;50.812;4.430;2023-04-06T00:13:36;26.70;;;14.03;;
24799;SDS011;12897;50.812;4.430;2023-04-06T00:16:04;29.98;;;14.30;;
24799;SDS011;12897;50.812;4.430;2023-04-06T00:18:32;31.77;;;14.78;;
24799;SDS011;12897;50.812;4.430;2023-04-06T00:20:59;29.50;;;14.60;;
24799;SDS011;12897;50.812;4.430;2023-04-06T00:23:27;28.32;;;13.88;;
24799;SDS011;12897;50.812;4.430;2023-04-06T00:25:55;31.35;;;14.13;;
24799;SDS011;12897;50.812;4.430;2023-04-06T00:28:22;32.75;;;15.30;;
24799;SDS011;12897;50.812;4.430;2023-04-06T00:30:52;27.00;;;14.33;;
24799;SDS011;12897;50.812;4.430;2023-04-06T00:33:26;29.57;;;14.33;;
24799;SDS011;12897;50.812;4.430;2023-04-06T00:35:50;30.83;;;14.93;;
24799;SDS011;12897;50.812;4.430;2023-04-06T00:38:18;31.80;;;14.60;;
24799;SDS011;12897;50.812;4.430;2023-04-06T00:40:45;30.27;;;14.30;;
24799;SDS011;12897;50.812;4.430;2023-04-06T00:43:14;30.72;;;15.60;;
24799;SDS011;12897;50.812;4.430;2023-04-06T00:45:42;30.02;;;14.38;;
24799;SDS011;12897;50.812;4.430;2023-04-06T00:48:09;29.42;;;13.93;;
24799;SDS011;12897;50.812;4.430;2023-04-06T00:50:37;27.80;;;14.53;;
24799;SDS011;12897;50.812;4.430;2023-04-06T00:53:04;27.87;;;14.58;;
24799;SDS011;12897;50.812;4.430;2023-04-06T00:55:32;28.35;;;14.07;;
24799;SDS011;12897;50.812;4.430;2023-04-06T00:58:01;27.70;;;13.70;;
24799;SDS011;12897;50.812;4.430;2023-04-06T01:00:29;31.15;;;13.78;;
24799;SDS011;12897;50.812;4.430;2023-04-06T01:02:58;28.12;;;13.98;;
24799;SDS011;12897;50.812;4.430;2023-04-06T01:05:26;24.45;;;13.32;;
24799;SDS011;12897;50.812;4.430;2023-04-06T01:07:54;28.12;;;14.63;;
24799;SDS011;12897;50.812;4.430;2023-04-06T01:10:22;30.92;;;14.43;;
24799;SDS011;12897;50.812;4.430;2023-04-06T01:12:52;25.27;;;14.35;;
24799;SDS011;12897;50.812;4.430;2023-04-06T01:15:20;30.95;;;14.25;;
24799;SDS011;12897;50.812;4.430;2023-04-06T01:17:48;27.27;;;14.90;;
24799;SDS011;12897;50.812;4.430;2023-04-06T01:20:15;31.33;;;14.20;;
24799;SDS011;12897;50.812;4.430;2023-04-06T01:22:43;26.30;;;13.72;;
24799;SDS011;12897;50.812;4.430;2023-04-06T01:25:11;23.35;;;12.88;;
24799;SDS011;12897;50.812;4.430;2023-04-06T01:27:38;23.55;;;12.90;;
24799;SDS011;12897;50.812;4.430;2023-04-06T01:30:06;25.65;;;13.55;;
24799;SDS011;12897;50.812;4.430;2023-04-06T01:32:34;30.48;;;13.53;;
24799;SDS011;12897;50.812;4.430;2023-04-06T01:35:01;27.07;;;13.00;;
24799;SDS011;12897;50.812;4.430;2023-04-06T01:37:29;27.62;;;12.95;;
24799;SDS011;12897;50.812;4.430;2023-04-06T01:39:58;22.93;;;13.35;;
24799;SDS011;12897;50.812;4.430;2023-04-06T01:42:26;25.50;;;13.35;;
24799;SDS011;12897;50.812;4.430;2023-04-06T01:44:54;24.75;;;12.53;;
24799;SDS011;12897;50.812;4.430;2023-04-06T01:47:21;25.23;;;13.32;;
24799;SDS011;12897;50.812;4.430;2023-04-06T01:49:49;26.27;;;12.93;;
24799;SDS011;12897;50.812;4.430;2023-04-06T01:52:16;25.62;;;12.70;;
24799;SDS011;12897;50.812;4.430;2023-04-06T01:54:44;26.23;;;13.78;;
24799;SDS011;12897;50.812;4.430;2023-04-06T01:57:11;29.40;;;13.55;;
24799;SDS011;12897;50.812;4.430;2023-04-06T01:59:39;29.45;;;14.55;;
24799;SDS011;12897;50.812;4.430;2023-04-06T02:02:06;30.68;;;14.45;;
24799;SDS011;12897;50.812;4.430;2023-04-06T02:04:34;29.90;;;15.10;;
24799;SDS011;12897;50.812;4.430;2023-04-06T02:07:01;28.20;;;13.95;;
24799;SDS011;12897;50.812;4.430;2023-04-06T02:09:29;28.15;;;13.83;;
24799;SDS011;12897;50.812;4.430;2023-04-06T02:11:56;27.77;;;13.38;;
24799;SDS011;12897;50.812;4.430;2023-04-06T02:14:25;27.13;;;13.98;;
24799;SDS011;12897;50.812;4.430;2023-04-06T02:16:53;27.85;;;14.18;;
24799;SDS011;12897;50.812;4.430;2023-04-06T02:19:21;28.00;;;14.60;;
24799;SDS011;12897;50.812;4.430;2023-04-06T02:21:48;28.45;;;13.55;;
24799;SDS011;12897;50.812;4.430;2023-04-06T02:24:16;30.57;;;14.30;;
24799;SDS011;12897;50.812;4.430;2023-04-06T02:26:43;29.23;;;14.70;;
24799;SDS011;12897;50.812;4.430;2023-04-06T02:29:11;28.75;;;14.30;;
24799;SDS011;12897;50.812;4.430;2023-04-06T02:31:39;27.70;;;14.47;;
24799;SDS011;12897;50.812;4.430;2023-04-06T02:34:06;30.25;;;13.85;;
24799;SDS011;12897;50.812;4.430;2023-04-06T02:36:35;27.00;;;14.00;;
24799;SDS011;12897;50.812;4.430;2023-04-06T02:39:03;30.25;;;14.58;;
24799;SDS011;12897;50.812;4.430;2023-04-06T02:41:30;27.02;;;13.98;;
24799;SDS011;12897;50.812;4.430;2023-04-06T02:43:58;27.93;;;14.60;;
24799;SDS011;12897;50.812;4.430;2023-04-06T02:46:25;29.05;;;14.43;;
24799;SDS011;12897;50.812;4.430;2023-04-06T02:48:53;25.62;;;14.20;;
24799;SDS011;12897;50.812;4.430;2023-04-06T02:51:21;28.87;;;13.93;;
24799;SDS011;12897;50.812;4.430;2023-04-06T02:53:48;24.23;;;13.72;;
24799;SDS011;12897;50.812;4.430;2023-04-06T02:56:16;29.87;;;14.10;;
24799;SDS011;12897;50.812;4.430;2023-04-06T02:58:43;28.42;;;14.63;;
24799;SDS011;12897;50.812;4.430;2023-04-06T03:01:11;30.37;;;14.33;;
24799;SDS011;12897;50.812;4.430;2023-04-06T03:03:38;35.08;;;15.45;;
24799;SDS011;12897;50.812;4.430;2023-04-06T03:06:06;31.20;;;15.20;;
24799;SDS011;12897;50.812;4.430;2023-04-06T03:08:33;30.37;;;14.93;;
24799;SDS011;12897;50.812;4.430;2023-04-06T03:11:01;26.95;;;13.65;;
24799;SDS011;12897;50.812;4.430;2023-04-06T03:13:29;35.40;;;15.38;;
24799;SDS011;12897;50.812;4.430;2023-04-06T03:15:56;30.12;;;14.30;;
24799;SDS011;12897;50.812;4.430;2023-04-06T03:18:24;27.02;;;14.43;;
24799;SDS011;12897;50.812;4.430;2023-04-06T03:20:52;31.70;;;15.80;;
24799;SDS011;12897;50.812;4.430;2023-04-06T03:23:22;27.02;;;14.83;;
24799;SDS011;12897;50.812;4.430;2023-04-06T03:25:50;28.42;;;13.93;;
24799;SDS011;12897;50.812;4.430;2023-04-06T03:28:17;30.52;;;14.95;;
24799;SDS011;12897;50.812;4.430;2023-04-06T03:30:45;29.37;;;14.00;;
24799;SDS011;12897;50.812;4.430;2023-04-06T03:33:13;26.57;;;14.20;;
24799;SDS011;12897;50.812;4.430;2023-04-06T03:35:40;31.95;;;13.68;;
24799;SDS011;12897;50.812;4.430;2023-04-06T03:38:09;29.80;;;15.20;;
24799;SDS011;12897;50.812;4.430;2023-04-06T03:43:23;27.70;;;13.90;;
24799;SDS011;12897;50.812;4.430;2023-04-06T03:45:51;28.42;;;13.18;;
24799;SDS011;12897;50.812;4.430;2023-04-06T03:48:18;31.77;;;13.80;;
24799;SDS011;12897;50.812;4.430;2023-04-06T03:50:46;25.92;;;13.90;;
24799;SDS011;12897;50.812;4.430;2023-04-06T03:53:13;28.75;;;14.47;;
24799;SDS011;12897;50.812;4.430;2023-04-06T03:55:41;28.65;;;13.25;;
24799;SDS011;12897;50.812;4.430;2023-04-06T03:58:09;28.15;;;14.05;;
24799;SDS011;12897;50.812;4.430;2023-04-06T04:00:36;26.50;;;13.88;;
24799;SDS011;12897;50.812;4.430;2023-04-06T04:03:04;27.27;;;13.78;;
24799;SDS011;12897;50.812;4.430;2023-04-06T04:05:31;26.17;;;13.53;;
24799;SDS011;12897;50.812;4.430;2023-04-06T04:07:59;30.08;;;13.83;;
24799;SDS011;12897;50.812;4.430;2023-04-06T04:10:27;28.75;;;15.20;;
24799;SDS011;12897;50.812;4.430;2023-04-06T04:12:54;25.02;;;13.03;;
24799;SDS011;12897;50.812;4.430;2023-04-06T04:15:22;28.40;;;13.98;;
24799;SDS011;12897;50.812;4.430;2023-04-06T04:17:49;31.87;;;13.95;;
24799;SDS011;12897;50.812;4.430;2023-04-06T04:20:17;31.95;;;14.58;;
24799;SDS011;12897;50.812;4.430;2023-04-06T04:22:44;26.73;;;13.60;;
24799;SDS011;12897;50.812;4.430;2023-04-06T04:25:13;30.45;;;14.78;;
24799;SDS011;12897;50.812;4.430;2023-04-06T04:27:41;27.25;;;13.50;;
24799;SDS011;12897;50.812;4.430;2023-04-06T04:30:08;28.77;;;14.05;;
24799;SDS011;12897;50.812;4.430;2023-04-06T04:32:36;32.48;;;13.88;;
24799;SDS011;12897;50.812;4.430;2023-04-06T04:35:03;36.85;;;14.47;;
24799;SDS011;12897;50.812;4.430;2023-04-06T04:37:32;31.82;;;14.30;;
24799;SDS011;12897;50.812;4.430;2023-04-06T04:40:01;35.92;;;15.08;;
24799;SDS011;12897;50.812;4.430;2023-04-06T04:42:28;28.73;;;14.43;;
24799;SDS011;12897;50.812;4.430;2023-04-06T04:44:56;27.52;;;14.80;;
24799;SDS011;12897;50.812;4.430;2023-04-06T04:47:23;31.00;;;13.78;;
24799;SDS011;12897;50.812;4.430;2023-04-06T04:49:51;32.38;;;14.87;;
24799;SDS011;12897;50.812;4.430;2023-04-06T04:52:18;29.50;;;14.33;;
24799;SDS011;12897;50.812;4.430;2023-04-06T04:54:46;27.95;;;14.38;;
24799;SDS011;12897;50.812;4.430;2023-04-06T04:57:13;36.88;;;14.58;;
24799;SDS011;12897;50.812;4.430;2023-04-06T04:59:42;31.87;;;14.60;;
24799;SDS011;12897;50.812;4.430;2023-04-06T05:02:10;30.57;;;14.55;;
24799;SDS011;12897;50.812;4.430;2023-04-06T05:04:38;26.00;;;14.00;;
24799;SDS011;12897;50.812;4.430;2023-04-06T05:07:05;32.17;;;15.50;;
24799;SDS011;12897;50.812;4.430;2023-04-06T05:09:34;38.38;;;16.42;;
24799;SDS011;12897;50.812;4.430;2023-04-06T05:12:02;26.62;;;14.13;;
24799;SDS011;12897;50.812;4.430;2023-04-06T05:14:29;25.97;;;14.50;;
24799;SDS011;12897;50.812;4.430;2023-04-06T05:16:57;33.13;;;15.40;;
24799;SDS011;12897;50.812;4.430;2023-04-06T05:19:24;33.38;;;14.60;;
24799;SDS011;12897;50.812;4.430;2023-04-06T05:21:52;26.82;;;14.68;;
24799;SDS011;12897;50.812;4.430;2023-04-06T05:24:21;31.23;;;14.13;;
24799;SDS011;12897;50.812;4.430;2023-04-06T05:26:48;29.12;;;14.20;;
24799;SDS011;12897;50.812;4.430;2023-04-06T05:29:16;44.67;;;15.18;;
24799;SDS011;12897;50.812;4.430;2023-04-06T05:31:46;30.90;;;14.33;;
24799;SDS011;12897;50.812;4.430;2023-04-06T05:34:13;34.15;;;14.90;;
24799;SDS011;12897;50.812;4.430;2023-04-06T05:36:41;31.52;;;15.05;;
24799;SDS011;12897;50.812;4.430;2023-04-06T05:39:09;30.60;;;16.60;;
24799;SDS011;12897;50.812;4.430;2023-04-06T05:41:38;34.70;;;15.15;;
24799;SDS011;12897;50.812;4.430;2023-04-06T05:44:05;36.15;;;14.70;;
24799;SDS011;12897;50.812;4.430;2023-04-06T05:46:33;31.77;;;15.80;;
24799;SDS011;12897;50.812;4.430;2023-04-06T05:49:00;30.08;;;15.18;;
24799;SDS011;12897;50.812;4.430;2023-04-06T05:51:29;33.85;;;15.20;;
24799;SDS011;12897;50.812;4.430;2023-04-06T05:53:57;32.80;;;15.50;;
24799;SDS011;12897;50.812;4.430;2023-04-06T05:56:24;48.65;;;15.38;;
24799;SDS011;12897;50.812;4.430;2023-04-06T05:58:52;39.10;;;15.88;;
24799;SDS011;12897;50.812;4.430;2023-04-06T06:01:19;44.60;;;16.25;;
24799;SDS011;12897;50.812;4.430;2023-04-06T06:03:48;30.65;;;15.58;;
24799;SDS011;12897;50.812;4.430;2023-04-06T06:09:02;32.98;;;15.05;;
24799;SDS011;12897;50.812;4.430;2023-04-06T06:11:30;32.48;;;14.95;;
24799;SDS011;12897;50.812;4.430;2023-04-06T06:13:59;34.58;;;16.73;;
24799;SDS011;12897;50.812;4.430;2023-04-06T06:16:27;39.27;;;18.60;;
24799;SDS011;12897;50.812;4.430;2023-04-06T06:18:54;43.25;;;17.32;;
24799;SDS011;12897;50.812;4.430;2023-04-06T06:21:22;40.65;;;17.37;;
24799;SDS011;12897;50.812;4.430;2023-04-06T06:23:50;32.45;;;17.40;;
24799;SDS011;12897;50.812;4.430;2023-04-06T06:26:19;44.03;;;17.73;;
24799;SDS011;12897;50.812;4.430;2023-04-06T06:28:47;47.05;;;18.70;;
24799;SDS011;12897;50.812;4.430;2023-04-06T06:31:16;40.83;;;17.52;;
24799;SDS011;12897;50.812;4.430;2023-04-06T06:33:45;36.85;;;16.85;;
24799;SDS011;12897;50.812;4.430;2023-04-06T06:36:14;40.58;;;18.30;;
24799;SDS011;12897;50.812;4.430;2023-04-06T06:38:46;35.63;;;18.32;;
24799;SDS011;12897;50.812;4.430;2023-04-06T06:41:13;40.12;;;19.57;;
24799;SDS011;12897;50.812;4.430;2023-04-06T06:43:41;43.20;;;19.65;;
24799;SDS011;12897;50.812;4.430;2023-04-06T06:46:09;33.48;;;18.48;;
24799;SDS011;12897;50.812;4.430;2023-04-06T06:48:36;41.85;;;19.92;;
24799;SDS011;12897;50.812;4.430;2023-04-06T06:51:05;31.20;;;19.17;;
24799;SDS011;12897;50.812;4.430;2023-04-06T06:53:33;34.58;;;19.07;;
24799;SDS011;12897;50.812;4.430;2023-04-06T06:56:01;34.98;;;19.17;;
24799;SDS011;12897;50.812;4.430;2023-04-06T06:58:30;39.23;;;18.35;;
24799;SDS011;12897;50.812;4.430;2023-04-06T07:01:00;33.85;;;17.67;;
24799;SDS011;12897;50.812;4.430;2023-04-06T07:03:27;42.30;;;18.80;;
24799;SDS011;12897;50.812;4.430;2023-04-06T07:05:55;39.30;;;19.20;;
24799;SDS011;12897;50.812;4.430;2023-04-06T07:08:23;37.08;;;18.55;;
24799;SDS011;12897;50.812;4.430;2023-04-06T07:10:52;37.45;;;17.52;;
24799;SDS011;12897;50.812;4.430;2023-04-06T07:13:23;35.43;;;19.55;;
24799;SDS011;12897;50.812;4.430;2023-04-06T07:15:55;36.53;;;17.57;;
24799;SDS011;12897;50.812;4.430;2023-04-06T07:18:22;34.65;;;17.40;;
24799;SDS011;12897;50.812;4.430;2023-04-06T07:20:50;34.70;;;17.57;;
24799;SDS011;12897;50.812;4.430;2023-04-06T07:23:17;32.80;;;17.00;;
24799;SDS011;12897;50.812;4.430;2023-04-06T07:25:45;34.88;;;17.20;;
24799;SDS011;12897;50.812;4.430;2023-04-06T07:28:13;34.60;;;17.52;;
24799;SDS011;12897;50.812;4.430;2023-04-06T07:30:41;31.10;;;17.45;;
24799;SDS011;12897;50.812;4.430;2023-04-06T07:33:09;30.75;;;17.32;;
24799;SDS011;12897;50.812;4.430;2023-04-06T07:35:39;34.48;;;16.20;;
24799;SDS011;12897;50.812;4.430;2023-04-06T07:38:06;37.73;;;17.20;;
24799;SDS011;12897;50.812;4.430;2023-04-06T07:40:35;34.33;;;17.30;;
24799;SDS011;12897;50.812;4.430;2023-04-06T07:45:34;29.37;;;15.38;;
24799;SDS011;12897;50.812;4.430;2023-04-06T07:48:04;28.92;;;15.83;;
24799;SDS011;12897;50.812;4.430;2023-04-06T07:50:31;30.37;;;16.30;;
24799;SDS011;12897;50.812;4.430;2023-04-06T07:53:00;33.13;;;16.77;;
24799;SDS011;12897;50.812;4.430;2023-04-06T07:55:28;29.90;;;17.00;;
24799;SDS011;12897;50.812;4.430;2023-04-06T07:57:56;28.83;;;15.40;;
24799;SDS011;12897;50.812;4.430;2023-04-06T08:00:23;31.37;;;15.35;;
24799;SDS011;12897;50.812;4.430;2023-04-06T08:02:51;26.80;;;15.35;;
24799;SDS011;12897;50.812;4.430;2023-04-06T08:05:18;27.73;;;15.28;;
24799;SDS011;12897;50.812;4.430;2023-04-06T08:07:46;30.52;;;15.68;;
24799;SDS011;12897;50.812;4.430;2023-04-06T08:10:16;29.27;;;15.43;;
24799;SDS011;12897;50.812;4.430;2023-04-06T08:12:44;25.72;;;13.65;;
24799;SDS011;12897;50.812;4.430;2023-04-06T08:15:11;25.77;;;14.45;;
24799;SDS011;12897;50.812;4.430;2023-04-06T08:17:44;25.82;;;15.23;;
24799;SDS011;12897;50.812;4.430;2023-04-06T08:20:14;25.92;;;13.45;;
24799;SDS011;12897;50.812;4.430;2023-04-06T08:25:08;23.70;;;13.35;;
24799;SDS011;12897;50.812;4.430;2023-04-06T08:27:37;24.98;;;13.88;;
24799;SDS011;12897;50.812;4.430;2023-04-06T08:30:05;26.48;;;13.68;;
24799;SDS011;12897;50.812;4.430;2023-04-06T08:32:33;32.42;;;14.70;;
24799;SDS011;12897;50.812;4.430;2023-04-06T08:35:02;24.37;;;14.00;;
24799;SDS011;12897;50.812;4.430;2023-04-06T08:37:29;26.57;;;13.03;;
24799;SDS011;12897;50.812;4.430;2023-04-06T08:42:49;25.68;;;12.53;;
24799;SDS011;12897;50.812;4.430;2023-04-06T08:45:16;23.12;;;12.80;;
24799;SDS011;12897;50.812;4.430;2023-04-06T08:47:52;25.10;;;13.15;;
24799;SDS011;12897;50.812;4.430;2023-04-06T08:50:18;28.05;;;13.20;;
24799;SDS011;12897;50.812;4.430;2023-04-06T08:52:47;25.68;;;13.08;;
24799;SDS011;12897;50.812;4.430;2023-04-06T08:57:54;32.38;;;14.30;;
24799;SDS011;12897;50.812;4.430;2023-04-06T09:00:22;29.87;;;12.50;;
24799;SDS011;12897;50.812;4.430;2023-04-06T09:02:55;26.85;;;13.78;;
24799;SDS011;12897;50.812;4.430;2023-04-06T09:05:26;22.95;;;12.98;;
24799;SDS011;12897;50.812;4.430;2023-04-06T09:07:55;22.50;;;12.95;;
24799;SDS011;12897;50.812;4.430;2023-04-06T09:10:22;25.55;;;13.58;;
24799;SDS011;12897;50.812;4.430;2023-04-06T09:12:51;26.82;;;12.53;;
24799;SDS011;12897;50.812;4.430;2023-04-06T09:15:24;26.75;;;13.08;;
24799;SDS011;12897;50.812;4.430;2023-04-06T09:17:53;24.98;;;12.88;;
24799;SDS011;12897;50.812;4.430;2023-04-06T09:20:26;21.50;;;12.80;;
24799;SDS011;12897;50.812;4.430;2023-04-06T09:22:57;25.10;;;13.60;;
24799;SDS011;12897;50.812;4.430;2023-04-06T09:25:25;27.10;;;13.83;;
24799;SDS011;12897;50.812;4.430;2023-04-06T09:28:03;26.10;;;14.78;;
24799;SDS011;12897;50.812;4.430;2023-04-06T09:30:32;30.65;;;15.20;;
24799;SDS011;12897;50.812;4.430;2023-04-06T09:33:01;28.12;;;13.62;;
24799;SDS011;12897;50.812;4.430;2023-04-06T09:35:32;26.12;;;13.90;;
24799;SDS011;12897;50.812;4.430;2023-04-06T09:38:09;23.35;;;12.82;;
24799;SDS011;12897;50.812;4.430;2023-04-06T09:40:32;24.52;;;13.22;;
24799;SDS011;12897;50.812;4.430;2023-04-06T09:43:00;26.52;;;13.38;;
24799;SDS011;12897;50.812;4.430;2023-04-06T09:45:29;22.87;;;12.55;;
24799;SDS011;12897;50.812;4.430;2023-04-06T09:47:57;28.62;;;16.05;;
24799;SDS011;12897;50.812;4.430;2023-04-06T09:50:26;22.67;;;13.55;;
24799;SDS011;12897;50.812;4.430;2023-04-06T09:52:54;22.58;;;13.72;;
24799;SDS011;12897;50.812;4.430;2023-04-06T09:55:34;23.50;;;12.85;;
24799;SDS011;12897;50.812;4.430;2023-04-06T09:58:04;22.80;;;13.48;;
24799;SDS011;12897;50.812;4.430;2023-04-06T10:00:35;26.50;;;13.25;;
24799;SDS011;12897;50.812;4.430;2023-04-06T10:03:08;23.73;;;14.25;;
24799;SDS011;12897;50.812;4.430;2023-04-06T10:05:42;23.70;;;12.65;;
24799;SDS011;12897;50.812;4.430;2023-04-06T10:08:20;22.27;;;13.20;;
24799;SDS011;12897;50.812;4.430;2023-04-06T10:10:51;20.08;;;12.23;;
24799;SDS011;12897;50.812;4.430;2023-04-06T10:13:20;26.80;;;12.90;;
24799;SDS011;12897;50.812;4.430;2023-04-06T10:15:49;22.53;;;13.27;;
24799;SDS011;12897;50.812;4.430;2023-04-06T10:18:18;20.90;;;11.73;;
24799;SDS011;12897;50.812;4.430;2023-04-06T10:20:56;24.80;;;12.73;;
24799;SDS011;12897;50.812;4.430;2023-04-06T10:23:45;21.33;;;12.65;;
24799;SDS011;12897;50.812;4.430;2023-04-06T10:26:26;22.58;;;12.15;;
24799;SDS011;12897;50.812;4.430;2023-04-06T10:28:50;25.62;;;12.68;;
24799;SDS011;12897;50.812;4.430;2023-04-06T10:31:24;20.82;;;12.65;;
24799;SDS011;12897;50.812;4.430;2023-04-06T10:33:53;21.97;;;12.82;;
24799;SDS011;12897;50.812;4.430;2023-04-06T10:36:31;23.42;;;12.53;;
24799;SDS011;12897;50.812;4.430;2023-04-06T10:39:01;23.77;;;12.50;;
24799;SDS011;12897;50.812;4.430;2023-04-06T10:41:40;24.63;;;13.00;;
24799;SDS011;12897;50.812;4.430;2023-04-06T10:44:03;25.00;;;13.83;;
24799;SDS011;12897;50.812;4.430;2023-04-06T10:46:32;28.32;;;13.22;;
24799;SDS011;12897;50.812;4.430;2023-04-06T10:49:10;20.62;;;13.03;;
24799;SDS011;12897;50.812;4.430;2023-04-06T10:51:42;23.35;;;13.48;;
24799;SDS011;12897;50.812;4.430;2023-04-06T10:56:40;19.30;;;12.37;;
24799;SDS011;12897;50.812;4.430;2023-04-06T10:59:08;27.05;;;13.38;;
24799;SDS011;12897;50.812;4.430;2023-04-06T11:01:37;22.85;;;13.48;;
24799;SDS011;12897;50.812;4.430;2023-04-06T11:06:35;23.30;;;13.65;;
24799;SDS011;12897;50.812;4.430;2023-04-06T11:09:03;23.42;;;13.48;;
24799;SDS011;12897;50.812;4.430;2023-04-06T11:11:30;19.70;;;12.53;;
24799;SDS011;12897;50.812;4.430;2023-04-06T11:13:59;24.15;;;13.95;;
24799;SDS011;12897;50.812;4.430;2023-04-06T11:18:57;25.62;;;13.65;;
24799;SDS011;12897;50.812;4.430;2023-04-06T11:21:43;22.82;;;13.10;;
24799;SDS011;12897;50.812;4.430;2023-04-06T11:24:16;26.12;;;13.88;;
24799;SDS011;12897;50.812;4.430;2023-04-06T11:26:47;23.52;;;13.32;;
24799;SDS011;12897;50.812;4.430;2023-04-06T11:29:28;22.65;;;13.45;;
24799;SDS011;12897;50.812;4.430;2023-04-06T11:32:01;23.52;;;13.08;;
24799;SDS011;12897;50.812;4.430;2023-04-06T11:34:34;21.93;;;13.53;;
24799;SDS011;12897;50.812;4.430;2023-04-06T11:37:07;22.22;;;14.07;;
24799;SDS011;12897;50.812;4.430;2023-04-06T11:39:47;19.32;;;12.82;;
24799;SDS011;12897;50.812;4.430;2023-04-06T11:42:23;23.38;;;13.53;;
24799;SDS011;12897;50.812;4.430;2023-04-06T11:44:58;21.40;;;13.18;;
24799;SDS011;12897;50.812;4.430;2023-04-06T11:47:30;24.80;;;14.47;;
24799;SDS011;12897;50.812;4.430;2023-04-06T11:50:08;24.50;;;14.63;;
24799;SDS011;12897;50.812;4.430;2023-04-06T11:52:35;22.45;;;12.63;;
24799;SDS011;12897;50.812;4.430;2023-04-06T11:55:11;26.27;;;14.30;;
24799;SDS011;12897;50.812;4.430;2023-04-06T11:57:44;21.55;;;13.32;;
24799;SDS011;12897;50.812;4.430;2023-04-06T12:00:12;20.65;;;13.48;;
24799;SDS011;12897;50.812;4.430;2023-04-06T12:02:40;25.10;;;12.90;;
24799;SDS011;12897;50.812;4.430;2023-04-06T12:05:10;23.77;;;13.03;;
24799;SDS011;12897;50.812;4.430;2023-04-06T12:07:38;28.32;;;13.45;;
24799;SDS011;12897;50.812;4.430;2023-04-06T12:10:06;24.00;;;13.62;;
24799;SDS011;12897;50.812;4.430;2023-04-06T12:12:34;23.32;;;14.47;;
24799;SDS011;12897;50.812;4.430;2023-04-06T12:15:04;22.48;;;14.05;;
24799;SDS011;12897;50.812;4.430;2023-04-06T12:17:31;21.52;;;13.05;;
24799;SDS011;12897;50.812;4.430;2023-04-06T12:20:00;20.08;;;13.60;;
24799;SDS011;12897;50.812;4.430;2023-04-06T12:22:28;23.25;;;13.85;;
24799;SDS011;12897;50.812;4.430;2023-04-06T12:24:56;18.20;;;12.40;;
24799;SDS011;12897;50.812;4.430;2023-04-06T12:27:28;20.40;;;12.37;;
24799;SDS011;12897;50.812;4.430;2023-04-06T12:29:56;22.52;;;13.30;;
24799;SDS011;12897;50.812;4.430;2023-04-06T12:32:23;21.00;;;12.75;;
24799;SDS011;12897;50.812;4.430;2023-04-06T12:34:52;20.08;;;13.20;;
24799;SDS011;12897;50.812;4.430;2023-04-06T12:37:20;19.92;;;12.78;;
24799;SDS011;12897;50.812;4.430;2023-04-06T12:39:47;19.98;;;12.55;;
24799;SDS011;12897;50.812;4.430;2023-04-06T12:42:16;23.07;;;15.07;;
24799;SDS011;12897;50.812;4.430;2023-04-06T12:44:44;20.10;;;13.60;;
24799;SDS011;12897;50.812;4.430;2023-04-06T12:47:13;25.55;;;13.83;;
24799;SDS011;12897;50.812;4.430;2023-04-06T12:49:42;21.15;;;13.50;;
24799;SDS011;12897;50.812;4.430;2023-04-06T12:52:10;22.02;;;13.45;;
24799;SDS011;12897;50.812;4.430;2023-04-06T12:54:38;26.93;;;14.33;;
24799;SDS011;12897;50.812;4.430;2023-04-06T12:57:07;25.37;;;14.80;;
24799;SDS011;12897;50.812;4.430;2023-04-06T12:59:35;21.02;;;14.35;;
24799;SDS011;12897;50.812;4.430;2023-04-06T13:02:03;24.67;;;15.13;;
24799;SDS011;12897;50.812;4.430;2023-04-06T13:04:32;22.87;;;14.50;;
24799;SDS011;12897;50.812;4.430;2023-04-06T13:06:59;25.15;;;15.38;;
24799;SDS011;12897;50.812;4.430;2023-04-06T13:09:27;27.15;;;15.15;;
24799;SDS011;12897;50.812;4.430;2023-04-06T13:11:54;25.88;;;15.70;;
24799;SDS011;12897;50.812;4.430;2023-04-06T13:14:22;22.62;;;14.65;;
24799;SDS011;12897;50.812;4.430;2023-04-06T13:16:51;20.10;;;14.23;;
24799;SDS011;12897;50.812;4.430;2023-04-06T13:19:20;25.23;;;15.10;;
24799;SDS011;12897;50.812;4.430;2023-04-06T13:21:48;26.03;;;15.23;;
24799;SDS011;12897;50.812;4.430;2023-04-06T13:24:16;30.23;;;16.48;;
24799;SDS011;12897;50.812;4.430;2023-04-06T13:26:45;25.10;;;14.95;;
24799;SDS011;12897;50.812;4.430;2023-04-06T13:29:14;24.35;;;14.80;;
24799;SDS011;12897;50.812;4.430;2023-04-06T13:31:43;24.85;;;15.48;;
24799;SDS011;12897;50.812;4.430;2023-04-06T13:36:40;33.42;;;16.27;;
24799;SDS011;12897;50.812;4.430;2023-04-06T13:39:08;23.65;;;15.88;;
24799;SDS011;12897;50.812;4.430;2023-04-06T13:41:36;23.20;;;15.10;;
24799;SDS011;12897;50.812;4.430;2023-04-06T13:44:03;25.35;;;15.98;;
24799;SDS011;12897;50.812;4.430;2023-04-06T13:46:33;28.15;;;15.23;;
24799;SDS011;12897;50.812;4.430;2023-04-06T13:49:00;27.20;;;16.40;;
24799;SDS011;12897;50.812;4.430;2023-04-06T13:51:28;25.97;;;15.65;;
24799;SDS011;12897;50.812;4.430;2023-04-06T13:53:56;23.85;;;15.08;;
24799;SDS011;12897;50.812;4.430;2023-04-06T13:56:26;26.85;;;16.12;;
24799;SDS011;12897;50.812;4.430;2023-04-06T13:58:56;27.60;;;15.35;;
24799;SDS011;12897;50.812;4.430;2023-04-06T14:01:24;28.33;;;17.63;;
24799;SDS011;12897;50.812;4.430;2023-04-06T14:03:53;24.47;;;15.23;;
24799;SDS011;12897;50.812;4.430;2023-04-06T14:06:21;28.67;;;15.43;;
24799;SDS011;12897;50.812;4.430;2023-04-06T14:08:48;23.47;;;15.15;;
24799;SDS011;12897;50.812;4.430;2023-04-06T14:11:18;23.42;;;14.53;;
24799;SDS011;12897;50.812;4.430;2023-04-06T14:13:46;28.15;;;16.37;;
24799;SDS011;12897;50.812;4.430;2023-04-06T14:16:13;22.27;;;14.80;;
24799;SDS011;12897;50.812;4.430;2023-04-06T14:18:42;21.93;;;14.83;;
24799;SDS011;12897;50.812;4.430;2023-04-06T14:21:11;21.30;;;13.83;;
24799;SDS011;12897;50.812;4.430;2023-04-06T14:23:38;23.00;;;15.00;;
24799;SDS011;12897;50.812;4.430;2023-04-06T14:26:07;24.12;;;14.98;;
24799;SDS011;12897;50.812;4.430;2023-04-06T14:28:35;22.93;;;14.87;;
24799;SDS011;12897;50.812;4.430;2023-04-06T14:31:09;20.68;;;14.40;;
24799;SDS011;12897;50.812;4.430;2023-04-06T14:33:39;21.77;;;14.38;;
24799;SDS011;12897;50.812;4.430;2023-04-06T14:36:12;22.10;;;15.35;;
24799;SDS011;12897;50.812;4.430;2023-04-06T14:38:40;23.73;;;14.87;;
24799;SDS011;12897;50.812;4.430;2023-04-06T14:41:14;24.13;;;16.47;;
24799;SDS011;12897;50.812;4.430;2023-04-06T14:43:43;29.32;;;17.52;;
24799;SDS011;12897;50.812;4.430;2023-04-06T14:46:12;25.63;;;15.83;;
24799;SDS011;12897;50.812;4.430;2023-04-06T14:48:41;27.02;;;16.40;;
24799;SDS011;12897;50.812;4.430;2023-04-06T14:51:09;23.05;;;15.38;;
24799;SDS011;12897;50.812;4.430;2023-04-06T14:53:37;26.93;;;16.60;;
24799;SDS011;12897;50.812;4.430;2023-04-06T14:56:05;29.35;;;15.95;;